createdAt,value
2023-04-16T06:56:25.727Z,97575.09
2023-04-16T06:58:52.876Z,97579.19
2023-04-16T07:01:20.034Z,97571.09
2023-04-16T07:03:47.380Z,97576.53
2023-04-16T07:06:14.874Z,97578.56
2023-04-16T07:08:42.035Z,97576.53
2023-04-16T07:11:09.236Z,97578.63
2023-04-16T07:13:37.795Z,97579.00
2023-04-16T07:16:05.517Z,97582.00
2023-04-16T07:18:33.119Z,97584.81
2023-04-16T07:21:00.399Z,97580.28
2023-04-16T07:23:27.645Z,97587.97
2023-04-16T07:25:54.858Z,97579.41
2023-04-16T07:28:22.159Z,97586.66
2023-04-16T07:30:50.863Z,97584.53
2023-04-16T07:33:18.090Z,97583.97
2023-04-16T07:35:45.395Z,97595.56
2023-04-16T07:38:12.926Z,97592.47
2023-04-16T07:40:40.096Z,97589.53
2023-04-16T07:43:07.479Z,97593.47
2023-04-16T07:45:34.646Z,97595.38
2023-04-16T07:48:03.382Z,97600.22
2023-04-16T07:50:30.606Z,97603.00
2023-04-16T07:52:57.819Z,97603.03
2023-04-16T07:55:24.971Z,97604.94
2023-04-16T07:57:52.262Z,97604.38
2023-04-16T08:00:19.459Z,97607.13
2023-04-16T08:02:46.913Z,97603.84
2023-04-16T08:05:15.660Z,97606.69
2023-04-16T08:07:42.873Z,97613.94
2023-04-16T08:10:10.313Z,97614.63
2023-04-16T08:12:37.542Z,97613.41
2023-04-16T08:15:05.541Z,97608.56
2023-04-16T08:17:32.894Z,97628.00
2023-04-16T08:20:00.104Z,97622.72
2023-04-16T08:22:28.723Z,97622.47
2023-04-16T08:24:55.990Z,97617.44
2023-04-16T08:27:23.304Z,97628.00
2023-04-16T08:29:50.454Z,97622.84
2023-04-16T08:32:17.721Z,97627.72
2023-04-16T08:34:44.934Z,97625.00
2023-04-16T08:37:12.086Z,97625.63
2023-04-16T08:39:40.662Z,97628.50
2023-04-16T08:42:09.462Z,97632.75
2023-04-16T08:44:38.124Z,97632.06
2023-04-16T08:47:05.639Z,97631.69
2023-04-16T08:49:32.889Z,97632.84
2023-04-16T08:52:00.081Z,97631.91
2023-04-16T08:54:39.125Z,97629.25
2023-04-16T08:57:07.915Z,97640.50
2023-04-16T08:59:34.983Z,97650.91
2023-04-16T09:02:02.464Z,97654.97
2023-04-16T09:04:30.001Z,97649.09
2023-04-16T09:06:57.281Z,97658.31
2023-04-16T09:09:24.478Z,97654.94
2023-04-16T09:11:51.960Z,97656.91
2023-04-16T09:14:20.662Z,97664.34
2023-04-16T09:16:47.907Z,97668.19
2023-04-16T09:19:15.371Z,97669.50
2023-04-16T09:21:42.681Z,97667.91
2023-04-16T09:24:09.922Z,97671.97
2023-04-16T09:26:37.133Z,97664.97
2023-04-16T09:29:04.371Z,97665.97
2023-04-16T09:31:33.089Z,97670.69
2023-04-16T09:34:03.619Z,97664.44
2023-04-16T09:36:30.814Z,97667.56
2023-04-16T09:38:58.046Z,97667.97
2023-04-16T09:41:25.923Z,97673.88
2023-04-16T09:43:56.681Z,97674.81
2023-04-16T09:46:24.581Z,97674.78
2023-04-16T09:48:53.327Z,97671.84
2023-04-16T09:51:20.587Z,97668.09
2023-04-16T09:53:47.782Z,97670.72
2023-04-16T09:56:14.986Z,97670.66
2023-04-16T09:58:42.173Z,97668.28
2023-04-16T10:01:10.802Z,97673.47
2023-04-16T10:03:39.173Z,97670.66
2023-04-16T10:06:14.847Z,97678.44
2023-04-16T10:08:43.782Z,97677.44
2023-04-16T10:11:11.266Z,97675.97
2023-04-16T10:13:38.456Z,97684.53
2023-04-16T10:16:06.485Z,97676.56
2023-04-16T10:18:33.627Z,97680.94
2023-04-16T10:21:00.897Z,97675.97
2023-04-16T10:23:29.529Z,97672.03
2023-04-16T10:25:57.774Z,97671.84
2023-04-16T10:28:25.177Z,97672.84
2023-04-16T10:30:52.702Z,97673.75
2023-04-16T10:33:20.973Z,97688.41
2023-04-16T10:35:54.981Z,97682.09
2023-04-16T10:38:33.442Z,97678.53
2023-04-16T10:41:00.766Z,97683.59
2023-04-16T10:43:28.696Z,97685.28
2023-04-16T10:45:55.935Z,97680.81
2023-04-16T10:48:24.462Z,97687.81
2023-04-16T10:50:55.220Z,97682.53
2023-04-16T10:53:23.788Z,97690.00
2023-04-16T10:55:59.283Z,97681.00
2023-04-16T10:58:29.662Z,97687.44
2023-04-16T11:00:59.802Z,97687.72
2023-04-16T11:03:30.241Z,97682.66
2023-04-16T11:06:11.408Z,97684.56
2023-04-16T11:08:51.221Z,97688.25
2023-04-16T11:11:23.121Z,97681.41
2023-04-16T11:13:50.377Z,97683.03
2023-04-16T11:16:17.637Z,97680.38
2023-04-16T11:18:51.392Z,97681.50
2023-04-16T11:21:19.048Z,97674.88
2023-04-16T11:23:47.526Z,97680.50
2023-04-16T11:26:26.447Z,97669.22
2023-04-16T11:28:54.057Z,97672.22
2023-04-16T11:31:21.493Z,97678.44
2023-04-16T11:33:48.684Z,97666.00
2023-04-16T11:36:15.903Z,97681.53
2023-04-16T11:38:43.076Z,97678.72
2023-04-16T11:41:10.335Z,97677.16
2023-04-16T11:43:38.957Z,97681.44
2023-04-16T11:46:16.716Z,97674.88
2023-04-16T11:48:52.093Z,97675.97
2023-04-16T11:51:19.442Z,97676.28
2023-04-16T11:53:47.789Z,97680.38
2023-04-16T11:56:15.092Z,97674.84
2023-04-16T11:58:43.791Z,97678.41
2023-04-16T12:01:11.103Z,97672.69
2023-04-16T12:03:39.963Z,97667.41
2023-04-16T12:06:10.597Z,97666.94
2023-04-16T12:08:37.769Z,97670.41
2023-04-16T12:11:06.119Z,97670.84
2023-04-16T12:13:33.305Z,97673.38
2023-04-16T12:16:02.079Z,97670.81
2023-04-16T12:18:29.309Z,97677.16
2023-04-16T12:20:56.551Z,97669.25
2023-04-16T12:23:24.798Z,97668.19
2023-04-16T12:25:52.132Z,97673.47
2023-04-16T12:28:28.171Z,97672.06
2023-04-16T12:30:55.471Z,97675.31
2023-04-16T12:33:24.163Z,97676.22
2023-04-16T12:35:51.419Z,97673.31
2023-04-16T12:38:18.744Z,97679.69
2023-04-16T12:40:45.936Z,97675.31
2023-04-16T12:43:13.295Z,97663.47
2023-04-16T12:45:40.598Z,97673.81
2023-04-16T12:48:07.961Z,97669.13
2023-04-16T12:50:36.495Z,97674.63
2023-04-16T12:53:03.766Z,97669.44
2023-04-16T12:55:30.900Z,97664.53
2023-04-16T12:57:58.171Z,97665.19
2023-04-16T13:00:25.503Z,97661.31
2023-04-16T13:02:52.903Z,97663.50
2023-04-16T13:05:20.188Z,97655.72
2023-04-16T13:07:48.846Z,97661.66
2023-04-16T13:10:16.096Z,97656.09
2023-04-16T13:12:43.395Z,97661.47
2023-04-16T13:15:11.258Z,97654.72
2023-04-16T13:17:38.585Z,97656.91
2023-04-16T13:20:06.707Z,97645.25
2023-04-16T13:22:33.999Z,97648.09
2023-04-16T13:25:02.643Z,97644.09
2023-04-16T13:27:29.791Z,97647.44
2023-04-16T13:29:56.989Z,97647.00
2023-04-16T13:32:24.257Z,97655.75
2023-04-16T13:34:51.506Z,97652.09
2023-04-16T13:37:18.809Z,97653.91
2023-04-16T13:39:46.053Z,97650.28
2023-04-16T13:42:15.902Z,97644.91
2023-04-16T13:44:43.097Z,97647.38
2023-04-16T13:47:10.431Z,97632.63
2023-04-16T13:49:37.673Z,97644.78
2023-04-16T13:52:05.118Z,97635.25
2023-04-16T13:54:32.534Z,97637.34
2023-04-16T13:56:59.688Z,97632.00
2023-04-16T13:59:28.390Z,97635.91
2023-04-16T14:01:55.738Z,97626.13
2023-04-16T14:04:23.051Z,97629.06
2023-04-16T14:06:50.357Z,97630.09
2023-04-16T14:09:17.553Z,97633.53
2023-04-16T14:11:44.794Z,97631.94
2023-04-16T14:14:12.050Z,97629.81
2023-04-16T17:49:48.759Z,97698.19
2023-04-16T17:52:16.353Z,97703.25
2023-04-16T17:54:43.483Z,97697.41
2023-04-16T17:57:10.747Z,97697.47
2023-04-16T17:59:37.909Z,97702.72
2023-04-16T18:02:05.186Z,97705.81
2023-04-16T18:04:32.660Z,97708.50
2023-04-16T18:07:01.273Z,97715.41
2023-04-16T18:09:28.417Z,97706.19
2023-04-16T18:11:55.620Z,97705.72
2023-04-16T18:14:22.829Z,97700.03
2023-04-16T18:16:49.981Z,97704.44
2023-04-16T18:19:17.185Z,97711.34
2023-04-16T18:21:44.468Z,97704.22
2023-04-16T18:24:13.209Z,97712.50
2023-04-16T18:26:41.286Z,97702.69
2023-04-16T18:29:09.192Z,97704.22
2023-04-16T18:31:36.604Z,97704.53
2023-04-16T18:34:03.840Z,97703.75
2023-04-16T18:36:31.035Z,97705.44
2023-04-16T18:39:02.205Z,97708.75
2023-04-16T18:41:31.413Z,97708.22
2023-04-16T18:43:58.676Z,97703.31
2023-04-16T18:46:25.930Z,97726.09
2023-04-16T18:48:53.208Z,97715.09
2023-04-16T18:51:20.378Z,97717.91
2023-04-16T18:53:47.433Z,97726.13
2023-04-16T18:56:14.684Z,97716.78
2023-04-16T18:58:43.273Z,97722.78
2023-04-16T19:01:10.535Z,97717.28
2023-04-16T19:03:38.064Z,97724.59
2023-04-16T19:06:05.501Z,97725.97
2023-04-16T19:08:32.795Z,97722.44
2023-04-16T19:10:59.904Z,97728.81
2023-04-16T19:13:27.100Z,97726.47
2023-04-16T19:15:58.659Z,97728.72
2023-04-16T19:18:25.873Z,97729.03
2023-04-16T19:20:58.977Z,97736.41
2023-04-16T19:23:26.288Z,97734.06
2023-04-16T19:25:53.490Z,97730.97
2023-04-16T19:28:20.687Z,97738.19
2023-04-16T19:30:50.089Z,97734.38
2023-04-16T19:33:18.752Z,97743.44
2023-04-16T19:35:45.918Z,97743.19
2023-04-16T19:38:13.067Z,97738.19
2023-04-16T19:40:40.213Z,97748.59
2023-04-16T19:43:07.375Z,97744.25
2023-04-16T19:45:34.508Z,97748.06
2023-04-16T19:48:01.744Z,97751.47
2023-04-16T19:50:30.246Z,97742.31
2023-04-16T19:52:57.426Z,97747.09
2023-04-16T19:55:24.692Z,97744.06
2023-04-16T19:57:51.783Z,97734.66
2023-04-16T20:00:19.413Z,97735.88
2023-04-16T20:02:46.792Z,97737.06
2023-04-16T20:05:14.234Z,97739.22
2023-04-16T20:07:42.823Z,97733.09
2023-04-16T20:10:10.768Z,97734.75
2023-04-16T20:12:38.016Z,97731.72
2023-04-16T20:15:06.301Z,97725.06
2023-04-16T20:17:33.537Z,97720.66
2023-04-16T20:20:00.700Z,97718.63
2023-04-16T20:22:27.890Z,97723.09
2023-04-16T20:24:56.487Z,97725.91
2023-04-16T20:27:23.729Z,97721.50
2023-04-16T20:29:50.817Z,97719.44
2023-04-16T20:32:18.026Z,97710.81
2023-04-16T20:34:45.088Z,97722.97
2023-04-16T20:37:12.365Z,97725.47
2023-04-16T20:39:39.619Z,97719.91
2023-04-16T20:42:08.352Z,97718.56
2023-04-16T20:44:35.720Z,97716.09
2023-04-16T20:47:02.902Z,97714.88
2023-04-16T20:49:30.071Z,97722.22
2023-04-16T20:51:57.405Z,97717.78
2023-04-16T20:54:24.577Z,97715.16
2023-04-16T20:56:51.889Z,97709.94
2023-04-16T20:59:20.563Z,97714.13
